This is the latest recevied weather packets stored in our database for station/object VK3HUG-13. If no packets are shown the sender has not sent any weather packets the latest 10 day(s).
| Time | Temp. | Humidity | Pressure | Rain* | Wind** | Luminosity | Snow |
|---|---|---|---|---|---|---|---|
| 1787997606 | 8.33° C | 87% | 1035.5 hPa | 0 mm | - | - | - |
| 1787996707 | 9.44° C | 85% | 1035.4 hPa | 0 mm | - | - | - |
| 1787994907 | 9.44° C | 85% | 1034.3 hPa | 0 mm | - | - | - |
| 1787994007 | 8.89° C | 84% | 1034.4 hPa | 0 mm | - | - | - |
| 1787993106 | 8.33° C | 82% | 1034.4 hPa | 0 mm | - | - | - |
| 1787977806 | 12.22° C | 68% | 1033.9 hPa | 0 mm | - | - | - |
| 1787976906 | - | - | 1033.5 hPa | - | - | - | - |
| 1787959807 | 9.44° C | 72% | 1035.4 hPa | 0 mm | - | - | - |
| 1787958907 | 8.33° C | 76% | 1036.5 hPa | 0 mm | - | - | - |
| 1787958006 | 8.33° C | 78% | 1036.5 hPa | 0 mm | - | - | - |
| 1787951707 | 6.67° C | 98% | 1034.7 hPa | 0 mm | - | - | - |
| 1787945408 | 5.56° C | 3% | 1034.8 hPa | 0 mm | - | - | - |
| 1787937307 | 6.67° C | 2% | 1033.6 hPa | 0 mm | - | - | - |
| 1787935507 | 7.78° C | 2% | 1033.5 hPa | 0 mm | - | - | - |
| 1787934607 | 7.78° C | 1% | 1033.5 hPa | 0 mm | - | - | - |
| 1787933706 | 7.78° C | 1% | 1033.5 hPa | 0 mm | - | - | - |
| 1787932807 | 8.33° C | 1% | 1033.5 hPa | 0 mm | - | - | - |
| 1787927407 | 8.33° C | 1% | 1033.5 hPa | 0 mm | - | - | - |
| 1787925607 | 6.67° C | 1% | 1033.7 hPa | 0 mm | - | - | - |
| 1787922906 | 6.67° C | 100% | 1033.7 hPa | 0 mm | - | - | - |
| 1787919306 | 7.22° C | 100% | 1033.6 hPa | 0 mm | - | - | - |
| 1787916607 | 7.22° C | 99% | 1033.6 hPa | 0 mm | - | - | - |
| 1787906708 | 10° C | 98% | 1032.2 hPa | 0 mm | - | - | - |
| 1787905806 | 10° C | 97% | 1032.1 hPa | 0 mm | - | - | - |
| 1787870706 | 15.56° C | 61% | 1030.3 hPa | 0 mm | - | - | - |
* Rain latest hour (hover to see other rain measurements)
** Current wind speed in m/s (hover to see current wind gust speed)